createdAt,value
2022-09-14T00:02:21.777Z,17.45
2022-09-14T00:04:48.990Z,17.85
2022-09-14T00:07:16.081Z,17.63
2022-09-14T00:09:43.834Z,16.20
2022-09-14T00:12:11.301Z,15.70
2022-09-14T00:14:40.429Z,15.90
2022-09-14T00:17:07.605Z,15.93
2022-09-14T00:19:34.809Z,15.23
2022-09-14T00:22:02.009Z,15.98
2022-09-14T00:24:34.867Z,15.27
2022-09-14T00:27:02.747Z,16.20
2022-09-14T00:29:30.527Z,19.02
2022-09-14T00:31:57.707Z,17.80
2022-09-14T00:34:24.919Z,19.75
2022-09-14T00:36:52.590Z,19.48
2022-09-14T00:39:21.101Z,19.48
2022-09-14T00:41:51.613Z,19.95
2022-09-14T00:44:18.667Z,23.52
2022-09-14T00:46:50.090Z,18.10
2022-09-14T00:49:26.006Z,17.08
2022-09-14T00:51:56.596Z,17.42
2022-09-14T00:54:23.746Z,17.15
2022-09-14T00:56:51.146Z,16.85
2022-09-14T00:59:19.801Z,18.25
2022-09-14T01:01:47.417Z,19.27
2022-09-14T01:04:14.743Z,17.23
2022-09-14T01:06:47.707Z,18.85
2022-09-14T01:09:30.218Z,19.25
2022-09-14T01:12:17.343Z,19.30
2022-09-14T01:15:02.730Z,19.02
2022-09-14T01:17:35.724Z,20.75
2022-09-14T01:20:20.827Z,18.30
2022-09-14T01:22:47.874Z,20.65
2022-09-14T01:25:22.449Z,22.27
2022-09-14T01:27:51.466Z,20.52
2022-09-14T01:30:20.991Z,22.35
2022-09-14T01:32:54.263Z,21.83
2022-09-14T01:35:21.354Z,23.20
2022-09-14T01:37:51.431Z,20.38
2022-09-14T01:40:29.084Z,19.83
2022-09-14T01:42:59.127Z,17.77
2022-09-14T01:45:27.998Z,17.98
2022-09-14T01:47:56.792Z,18.38
2022-09-14T01:50:26.638Z,19.05
2022-09-14T01:52:59.247Z,18.30
2022-09-14T01:58:02.628Z,18.35
2022-09-14T02:00:30.741Z,19.52
2022-09-14T02:03:21.078Z,19.38
2022-09-14T02:05:56.875Z,18.20
2022-09-14T02:08:26.977Z,17.95
2022-09-14T02:10:54.123Z,18.77
2022-09-14T02:13:21.611Z,18.60
2022-09-14T02:15:48.781Z,17.17
2022-09-14T02:18:16.031Z,18.88
2022-09-14T02:20:49.252Z,18.10
2022-09-14T02:23:16.721Z,19.88
2022-09-14T02:25:44.153Z,25.20
2022-09-14T02:28:11.493Z,22.95
2022-09-14T02:30:47.137Z,23.38
2022-09-14T02:33:24.860Z,17.90
2022-09-14T02:35:54.707Z,18.60
2022-09-14T02:38:32.535Z,21.70
2022-09-14T02:41:05.930Z,23.02
2022-09-14T02:43:33.035Z,19.77
2022-09-14T02:46:09.247Z,22.50
2022-09-14T02:48:48.652Z,21.60
2022-09-14T02:51:34.580Z,17.75
2022-09-14T02:54:04.735Z,19.02
2022-09-14T02:56:32.423Z,17.80
2022-09-14T02:58:59.533Z,21.48
2022-09-14T03:01:27.939Z,23.60
2022-09-14T03:03:55.385Z,21.35
2022-09-14T03:06:22.933Z,19.33
2022-09-14T03:08:50.425Z,23.05
2022-09-14T03:11:17.644Z,22.35
2022-09-14T03:13:44.742Z,20.67
2022-09-14T03:16:13.016Z,24.92
2022-09-14T03:18:40.453Z,23.40
2022-09-14T03:21:09.124Z,22.80
2022-09-14T03:23:39.801Z,25.05
2022-09-14T03:26:08.116Z,27.25
2022-09-14T03:28:35.312Z,26.63
2022-09-14T03:31:02.799Z,27.00
2022-09-14T03:33:29.931Z,30.35
2022-09-14T03:35:57.355Z,27.80
2022-09-14T03:38:26.859Z,29.40
2022-09-14T03:40:54.115Z,31.40
2022-09-14T03:43:21.707Z,29.42
2022-09-14T03:45:48.821Z,28.42
2022-09-14T03:48:16.011Z,28.25
2022-09-14T03:50:43.107Z,31.48
2022-09-14T03:53:10.235Z,28.58
2022-09-14T03:55:37.355Z,31.83
2022-09-14T03:58:04.461Z,30.85
2022-09-14T04:00:32.234Z,27.88
2022-09-14T04:03:00.668Z,28.33
2022-09-14T04:05:27.861Z,27.02
2022-09-14T04:07:54.927Z,32.35
2022-09-14T04:10:22.025Z,29.35
2022-09-14T04:12:49.164Z,28.70
2022-09-14T04:15:16.433Z,25.88
2022-09-14T04:17:43.748Z,24.73
2022-09-14T04:20:11.036Z,26.38
2022-09-14T04:22:38.215Z,25.65
2022-09-14T04:25:05.633Z,25.15
2022-09-14T04:27:32.887Z,28.38
2022-09-14T04:30:00.103Z,29.35
2022-09-14T04:32:29.730Z,23.50
2022-09-14T04:35:00.894Z,26.40
2022-09-14T04:37:31.078Z,28.33
2022-09-14T04:39:58.457Z,28.83
2022-09-14T04:42:25.689Z,25.75
2022-09-14T04:44:52.860Z,24.17
2022-09-14T04:47:20.034Z,25.48
2022-09-14T04:49:47.180Z,26.20
2022-09-14T04:52:14.368Z,26.15
2022-09-14T04:54:41.512Z,28.88
2022-09-14T04:57:08.806Z,28.17
2022-09-14T04:59:35.955Z,28.65
2022-09-14T05:02:03.191Z,28.67
2022-09-14T05:04:30.407Z,28.35
2022-09-14T05:06:57.603Z,31.17
2022-09-14T05:09:24.684Z,23.90
2022-09-14T05:11:52.833Z,23.77
2022-09-14T05:14:20.005Z,26.10
2022-09-14T05:16:48.024Z,25.23
2022-09-14T05:19:17.538Z,23.88
2022-09-14T05:21:45.097Z,23.80
2022-09-14T05:24:14.872Z,22.90
2022-09-14T05:26:43.182Z,23.67
2022-09-14T05:29:15.805Z,25.38
2022-09-14T05:34:10.883Z,24.90
2022-09-14T05:36:38.345Z,26.90
2022-09-14T05:39:06.002Z,27.58
2022-09-14T05:41:33.244Z,26.38
2022-09-14T05:44:00.683Z,31.55
2022-09-14T05:46:28.304Z,28.52
2022-09-14T05:48:55.503Z,26.88
2022-09-14T05:51:23.709Z,31.92
2022-09-14T05:53:51.655Z,31.50
2022-09-14T05:56:19.341Z,30.65
2022-09-14T05:58:46.920Z,29.20
2022-09-14T06:01:14.046Z,28.30
2022-09-14T06:03:41.550Z,25.80
2022-09-14T06:06:09.690Z,28.70
2022-09-14T06:08:37.354Z,25.42
2022-09-14T06:11:05.858Z,25.40
2022-09-14T06:13:33.399Z,27.67
2022-09-14T06:16:04.498Z,31.80
2022-09-14T06:18:35.008Z,25.92
2022-09-14T06:21:03.012Z,26.73
2022-09-14T06:23:30.832Z,27.15
2022-09-14T06:25:58.532Z,25.73
2022-09-14T06:28:26.185Z,25.40
2022-09-14T06:30:53.414Z,24.55
2022-09-14T06:33:20.929Z,24.80
2022-09-14T06:35:58.181Z,26.10
2022-09-14T06:38:25.812Z,24.65
2022-09-14T06:40:59.918Z,25.58
2022-09-14T06:43:28.319Z,24.08
2022-09-14T06:45:59.537Z,21.75
2022-09-14T06:48:27.586Z,22.15
2022-09-14T06:50:54.690Z,20.63
2022-09-14T06:53:21.819Z,24.65
2022-09-14T06:55:48.911Z,23.45
2022-09-14T06:58:16.130Z,24.17
2022-09-14T07:00:43.241Z,20.92
2022-09-14T07:03:10.441Z,18.80
2022-09-14T07:05:37.612Z,22.38
2022-09-14T07:08:07.041Z,22.65
2022-09-14T07:13:04.357Z,27.83
2022-09-14T07:15:31.479Z,19.85
2022-09-14T07:17:58.925Z,19.35
2022-09-14T07:20:26.116Z,22.40
2022-09-14T07:22:53.202Z,22.17
2022-09-14T07:25:20.331Z,22.58
2022-09-14T07:27:47.453Z,18.92
2022-09-14T07:30:14.577Z,20.67
2022-09-14T07:32:41.636Z,17.70
2022-09-14T07:35:08.967Z,20.02
2022-09-14T07:37:36.015Z,18.77
2022-09-14T07:40:03.243Z,16.58
2022-09-14T07:42:31.854Z,17.38
2022-09-14T07:44:59.032Z,17.80
2022-09-14T07:47:26.112Z,17.85
2022-09-14T07:49:53.251Z,17.90
2022-09-14T07:52:20.322Z,17.80
2022-09-14T07:54:47.411Z,19.55
2022-09-14T07:57:14.782Z,18.98
2022-09-14T07:59:41.876Z,18.33
2022-09-14T08:02:09.583Z,16.58
2022-09-14T08:04:38.537Z,14.20
2022-09-14T08:07:06.407Z,16.35
2022-09-14T08:09:33.993Z,12.93
2022-09-14T08:12:01.118Z,12.23
2022-09-14T08:14:28.323Z,11.25
2022-09-14T08:16:55.561Z,11.25
2022-09-14T08:19:22.761Z,9.75
2022-09-14T08:21:49.887Z,11.02
2022-09-14T08:24:18.084Z,9.40
2022-09-14T08:26:45.460Z,12.65
2022-09-14T08:29:13.422Z,11.18
2022-09-14T08:31:41.033Z,9.77
2022-09-14T08:34:08.639Z,11.35
2022-09-14T08:36:36.988Z,9.27
2022-09-14T08:39:04.771Z,9.20
2022-09-14T08:41:31.882Z,10.45
2022-09-14T08:44:05.572Z,11.38
2022-09-14T08:46:35.373Z,11.93
2022-09-14T08:49:04.504Z,10.43
2022-09-14T08:51:31.776Z,11.00
2022-09-14T08:54:01.890Z,11.50
2022-09-14T08:56:37.043Z,9.52
2022-09-14T08:59:19.400Z,13.05
2022-09-14T09:01:52.419Z,11.55
2022-09-14T09:04:25.516Z,11.13
2022-09-14T09:07:06.886Z,13.02
2022-09-14T09:09:45.342Z,12.55
2022-09-14T09:12:14.138Z,11.63
2022-09-14T09:14:43.991Z,12.32
2022-09-14T09:17:14.252Z,13.70
2022-09-14T09:19:50.667Z,14.90
2022-09-14T09:22:19.685Z,12.75
2022-09-14T09:24:49.859Z,14.23
2022-09-14T09:27:17.099Z,17.10
2022-09-14T09:29:44.434Z,15.10
2022-09-14T09:32:32.315Z,11.88
2022-09-14T09:35:01.177Z,12.68
2022-09-14T09:37:30.563Z,11.90
2022-09-14T09:39:57.700Z,12.27
2022-09-14T09:42:26.150Z,12.05
2022-09-14T09:45:02.536Z,10.55
2022-09-14T09:47:30.664Z,13.20
2022-09-14T09:49:59.654Z,11.52
2022-09-14T09:52:26.851Z,12.60
2022-09-14T09:54:55.375Z,11.98
2022-09-14T09:57:33.393Z,11.18
2022-09-14T10:00:10.082Z,10.07
2022-09-14T10:02:37.265Z,9.45
2022-09-14T10:05:04.568Z,9.88
2022-09-14T10:07:33.077Z,8.45
2022-09-14T10:10:02.098Z,9.45
2022-09-14T10:12:30.049Z,8.40
2022-09-14T10:15:25.704Z,8.50
2022-09-14T10:17:55.832Z,8.27
2022-09-14T10:20:24.054Z,7.47
2022-09-14T10:22:51.239Z,6.95
2022-09-14T10:25:18.332Z,8.30
2022-09-14T10:27:48.560Z,7.88
2022-09-14T10:30:19.891Z,7.38
2022-09-14T10:32:50.197Z,7.85
2022-09-14T10:35:17.479Z,8.90
2022-09-14T10:37:51.041Z,7.85
2022-09-14T10:40:23.480Z,7.07
2022-09-14T10:45:29.637Z,6.82
2022-09-14T10:47:56.907Z,7.43
2022-09-14T10:50:42.497Z,7.47
2022-09-14T10:53:21.357Z,6.65
2022-09-14T10:56:01.722Z,7.00
2022-09-14T10:58:51.911Z,6.00
2022-09-14T11:01:22.192Z,6.70
2022-09-14T11:03:49.357Z,7.35
2022-09-14T11:06:22.670Z,7.07
2022-09-14T11:08:55.763Z,7.57
2022-09-14T11:11:38.283Z,8.20
2022-09-14T11:14:05.408Z,7.00
2022-09-14T11:16:47.874Z,6.78
2022-09-14T11:19:14.913Z,7.15
2022-09-14T11:21:45.054Z,6.82
2022-09-14T11:24:18.672Z,5.97
2022-09-14T11:26:59.627Z,5.20
2022-09-14T11:29:34.644Z,5.82
2022-09-14T11:32:21.054Z,4.63
2022-09-14T11:34:54.816Z,4.85
2022-09-14T11:37:40.234Z,4.28
2022-09-14T11:40:33.117Z,4.88
2022-09-14T11:43:11.998Z,4.75
2022-09-14T11:46:05.332Z,4.57
2022-09-14T11:48:43.140Z,4.35
2022-09-14T11:51:22.775Z,5.30
2022-09-14T11:53:50.754Z,4.82
2022-09-14T11:56:26.860Z,4.25
2022-09-14T11:58:59.600Z,4.30
2022-09-14T12:01:39.144Z,5.25
2022-09-14T12:04:09.718Z,4.22
2022-09-14T12:06:36.445Z,5.20
2022-09-14T12:09:20.923Z,4.70
2022-09-14T12:11:55.074Z,4.88
2022-09-14T12:14:24.444Z,5.05
2022-09-14T12:17:38.939Z,5.80
2022-09-14T12:20:29.835Z,5.65
2022-09-14T12:23:12.789Z,5.50
2022-09-14T12:25:52.623Z,6.07
2022-09-14T12:28:40.189Z,6.03
2022-09-14T12:31:11.475Z,6.10
2022-09-14T12:33:38.111Z,5.97
2022-09-14T12:36:07.577Z,5.93
2022-09-14T12:38:37.307Z,6.57
2022-09-14T12:41:16.012Z,7.00
2022-09-14T12:43:42.745Z,6.90
2022-09-14T12:46:38.407Z,5.63
2022-09-14T12:49:38.102Z,4.18
2022-09-14T12:52:18.976Z,4.30
2022-09-14T12:54:54.116Z,4.18
2022-09-14T12:57:39.526Z,4.03
2022-09-14T13:00:16.781Z,4.10
2022-09-14T13:03:10.694Z,3.97
2022-09-14T13:05:37.465Z,3.85
2022-09-14T13:08:10.789Z,3.50
2022-09-14T13:10:44.586Z,3.83
2022-09-14T13:13:22.000Z,3.55
2022-09-14T13:15:57.756Z,3.42
2022-09-14T13:18:29.428Z,3.33
2022-09-14T13:20:59.081Z,3.78
2022-09-14T13:23:41.931Z,3.22
2022-09-14T13:26:18.583Z,3.40
2022-09-14T13:28:47.526Z,3.40
2022-09-14T13:31:18.718Z,3.53
2022-09-14T13:33:49.349Z,3.60
2022-09-14T13:36:26.544Z,3.85
2022-09-14T13:38:53.968Z,3.42
2022-09-14T13:41:22.951Z,3.42
2022-09-14T13:43:54.080Z,3.35
2022-09-14T13:46:22.995Z,3.88
2022-09-14T13:48:50.936Z,3.72
2022-09-14T13:51:26.571Z,3.10
2022-09-14T13:53:58.363Z,2.55
2022-09-14T13:56:30.836Z,2.70
2022-09-14T13:59:12.439Z,2.45
2022-09-14T14:02:00.692Z,2.63
2022-09-14T14:04:35.408Z,2.78
2022-09-14T14:07:02.078Z,2.67
2022-09-14T14:09:42.640Z,2.85
2022-09-14T14:12:11.506Z,2.55
2022-09-14T14:14:38.562Z,2.75
2022-09-14T14:17:29.466Z,2.70
2022-09-14T14:19:59.043Z,2.63
2022-09-14T14:22:31.943Z,2.70
2022-09-14T14:25:13.274Z,2.42
2022-09-14T14:27:46.266Z,1.60
2022-09-14T14:30:19.495Z,1.50
2022-09-14T14:32:53.535Z,2.08
2022-09-14T14:35:31.236Z,2.35
2022-09-14T14:37:58.548Z,2.60
2022-09-14T14:40:27.420Z,2.63
2022-09-14T14:42:55.193Z,2.63
2022-09-14T14:45:26.164Z,2.72
2022-09-14T14:47:54.686Z,2.20
2022-09-14T14:50:24.105Z,2.58
2022-09-14T14:52:51.743Z,2.30
2022-09-14T14:55:21.012Z,2.33
2022-09-14T14:57:49.106Z,2.25
2022-09-14T15:00:21.730Z,2.58
2022-09-14T15:05:16.067Z,1.90
2022-09-14T15:07:43.295Z,2.05
2022-09-14T15:10:13.885Z,1.98
2022-09-14T15:12:40.560Z,2.10
2022-09-14T15:15:15.300Z,1.90
2022-09-14T15:17:42.486Z,2.13
2022-09-14T15:20:09.742Z,1.83
2022-09-14T15:22:37.103Z,1.90
2022-09-14T15:25:05.456Z,1.73
2022-09-14T15:27:33.000Z,1.65
2022-09-14T15:29:59.769Z,1.88
2022-09-14T15:32:26.501Z,2.22
2022-09-14T15:34:53.595Z,2.05
2022-09-14T15:37:20.222Z,1.85
2022-09-14T15:39:50.115Z,1.98
2022-09-14T15:42:18.275Z,1.60
2022-09-14T15:44:45.051Z,1.65
2022-09-14T15:47:14.642Z,1.67
2022-09-14T15:49:42.445Z,1.80
2022-09-14T15:52:10.712Z,1.85
2022-09-14T15:54:38.350Z,1.95
2022-09-14T15:57:10.275Z,1.90
2022-09-14T15:59:36.965Z,1.75
2022-09-14T16:02:03.936Z,1.70
2022-09-14T16:04:36.451Z,1.75
2022-09-14T16:07:05.367Z,2.00
2022-09-14T16:09:32.049Z,2.42
2022-09-14T16:12:01.769Z,2.50
2022-09-14T16:14:28.759Z,1.92
2022-09-14T16:16:55.526Z,1.75
2022-09-14T16:19:22.292Z,2.03
2022-09-14T16:21:53.433Z,1.92
2022-09-14T16:24:22.032Z,1.90
2022-09-14T16:26:48.895Z,1.90
2022-09-14T16:29:17.803Z,2.15
2022-09-14T16:31:46.956Z,1.60
2022-09-14T16:34:26.061Z,1.75
2022-09-14T16:36:52.942Z,1.50
2022-09-14T16:39:23.162Z,1.40
2022-09-14T16:41:50.351Z,1.80
2022-09-14T16:44:20.873Z,1.70
2022-09-14T16:46:49.474Z,1.55
2022-09-14T16:49:17.459Z,1.55
2022-09-14T16:51:44.693Z,1.80
2022-09-14T16:54:16.945Z,2.15
2022-09-14T16:56:44.303Z,2.55
2022-09-14T16:59:12.134Z,2.83
2022-09-14T17:01:41.956Z,2.80
2022-09-14T17:04:13.224Z,2.80
2022-09-14T17:06:44.210Z,3.50
2022-09-14T17:09:20.707Z,3.22
2022-09-14T17:11:48.500Z,3.05
2022-09-14T17:14:20.763Z,3.20
2022-09-14T17:16:47.594Z,3.15
2022-09-14T17:19:14.682Z,3.42
2022-09-14T17:21:43.330Z,3.40
2022-09-14T17:24:11.000Z,3.38
2022-09-14T17:26:37.966Z,3.78
2022-09-14T17:29:05.436Z,3.67
2022-09-14T17:31:35.650Z,3.50
2022-09-14T17:34:04.300Z,3.65
2022-09-14T17:36:31.830Z,3.60
2022-09-14T17:39:01.825Z,3.75
2022-09-14T17:41:31.531Z,3.58
2022-09-14T17:44:00.679Z,3.65
2022-09-14T17:46:28.401Z,3.10
2022-09-14T17:48:58.251Z,3.38
2022-09-14T17:51:27.311Z,3.75
2022-09-14T17:53:56.040Z,3.70
2022-09-14T17:56:25.143Z,4.03
2022-09-14T17:58:59.942Z,4.82
2022-09-14T18:01:26.714Z,4.55
2022-09-14T18:03:55.994Z,4.93
2022-09-14T18:06:24.173Z,3.75
2022-09-14T18:08:55.970Z,4.70
2022-09-14T18:11:23.123Z,5.57
2022-09-14T18:13:50.750Z,4.20
2022-09-14T18:16:19.737Z,4.15
2022-09-14T18:18:46.942Z,3.72
2022-09-14T18:21:15.389Z,3.70
2022-09-14T18:23:42.260Z,4.20
2022-09-14T18:26:08.903Z,3.17
2022-09-14T18:28:36.587Z,3.40
2022-09-14T18:31:09.923Z,3.13
2022-09-14T18:33:37.292Z,3.72
2022-09-14T18:36:05.845Z,3.25
2022-09-14T18:38:32.955Z,2.75
2022-09-14T18:41:04.901Z,2.53
2022-09-14T18:43:31.734Z,1.83
2022-09-14T18:45:58.646Z,1.67
2022-09-14T18:48:25.347Z,1.80
2022-09-14T18:50:51.998Z,1.42
2022-09-14T18:53:19.602Z,1.83
2022-09-14T18:55:46.255Z,1.92
2022-09-14T18:58:12.918Z,1.58
2022-09-14T19:00:45.534Z,2.10
2022-09-14T19:05:41.317Z,2.03
2022-09-14T19:08:10.012Z,2.00
2022-09-14T19:10:37.927Z,1.80
2022-09-14T19:13:06.286Z,1.75
2022-09-14T19:15:33.681Z,1.63
2022-09-14T19:18:00.555Z,1.30
2022-09-14T19:20:43.177Z,1.63
2022-09-14T19:23:13.898Z,1.48
2022-09-14T19:25:40.786Z,1.70
2022-09-14T19:28:07.531Z,1.55
2022-09-14T19:30:36.336Z,1.58
2022-09-14T19:33:03.175Z,1.77
2022-09-14T19:35:30.539Z,1.75
2022-09-14T19:37:57.758Z,1.70
2022-09-14T19:40:24.690Z,1.73
2022-09-14T19:42:51.963Z,1.80
2022-09-14T19:45:19.040Z,1.50
2022-09-14T19:47:46.061Z,1.80
2022-09-14T19:50:12.792Z,2.00
2022-09-14T19:52:39.479Z,1.85
2022-09-14T19:55:06.560Z,1.80
2022-09-14T19:57:35.057Z,1.90
2022-09-14T20:00:01.966Z,1.80
2022-09-14T20:02:28.693Z,2.58
2022-09-14T20:04:55.626Z,2.47
2022-09-14T20:07:22.808Z,2.50
2022-09-14T20:09:49.933Z,2.50
2022-09-14T20:12:17.041Z,3.15
2022-09-14T20:14:44.145Z,2.63
2022-09-14T20:17:11.281Z,3.10
2022-09-14T20:19:39.224Z,2.83
2022-09-14T20:22:06.333Z,2.63
2022-09-14T20:24:33.433Z,2.80
2022-09-14T20:27:02.038Z,2.75
2022-09-14T20:29:30.683Z,3.00
2022-09-14T20:31:58.281Z,2.70
2022-09-14T20:34:25.480Z,3.65
2022-09-14T20:36:53.304Z,2.97
2022-09-14T20:39:21.622Z,2.70
2022-09-14T20:41:49.000Z,3.05
2022-09-14T20:44:21.917Z,3.30
2022-09-14T20:46:49.544Z,3.22
2022-09-14T20:49:18.045Z,3.45
2022-09-14T20:51:45.426Z,2.92
2022-09-14T20:54:14.325Z,3.55
2022-09-14T20:56:41.914Z,4.40
2022-09-14T20:59:10.804Z,3.72
2022-09-14T21:01:38.475Z,3.47
2022-09-14T21:04:05.660Z,4.13
2022-09-14T21:06:33.273Z,3.42
2022-09-14T21:09:00.890Z,4.30
2022-09-14T21:11:28.427Z,4.20
2022-09-14T21:13:56.712Z,3.40
2022-09-14T21:16:23.836Z,3.30
2022-09-14T21:19:01.922Z,3.53
2022-09-14T21:21:29.458Z,3.03
2022-09-14T21:23:57.381Z,2.92
2022-09-14T21:26:27.660Z,2.90
2022-09-14T21:28:56.337Z,2.53
2022-09-14T21:31:23.672Z,3.47
2022-09-14T21:33:52.423Z,3.40
2022-09-14T21:36:20.947Z,3.72
2022-09-14T21:38:51.578Z,3.10
2022-09-14T21:41:19.067Z,3.33
2022-09-14T21:43:46.184Z,2.88
2022-09-14T21:46:13.807Z,3.10
2022-09-14T21:48:41.077Z,2.67
2022-09-14T21:51:27.381Z,3.03
2022-09-14T21:53:55.833Z,2.80
2022-09-14T21:56:24.047Z,2.72
2022-09-14T21:58:54.803Z,2.90
2022-09-14T22:01:22.342Z,2.30
2022-09-14T22:03:53.096Z,2.53
2022-09-14T22:06:21.441Z,2.67
2022-09-14T22:08:49.186Z,2.45
2022-09-14T22:11:22.309Z,3.00
2022-09-14T22:13:57.352Z,2.45
2022-09-14T22:16:25.166Z,2.50
2022-09-14T22:18:53.911Z,2.88
2022-09-14T22:21:21.678Z,2.53
2022-09-14T22:23:59.321Z,3.15
2022-09-14T22:26:28.206Z,2.88
2022-09-14T22:28:55.443Z,2.58
2022-09-14T22:31:23.503Z,3.30
2022-09-14T22:33:51.430Z,3.65
2022-09-14T22:36:19.239Z,4.10
2022-09-14T22:38:46.544Z,3.22
2022-09-14T22:41:18.592Z,4.00
2022-09-14T22:43:46.447Z,3.17
2022-09-14T22:46:13.843Z,3.90
2022-09-14T22:48:41.041Z,3.10
2022-09-14T22:51:10.179Z,2.88
2022-09-14T22:53:37.704Z,3.38
2022-09-14T22:56:08.959Z,3.33
2022-09-14T22:58:36.276Z,3.28
2022-09-14T23:01:07.772Z,3.47
2022-09-14T23:03:35.223Z,2.80
2022-09-14T23:06:02.716Z,2.70
2022-09-14T23:08:30.082Z,3.05
2022-09-14T23:10:57.264Z,3.00
2022-09-14T23:13:24.468Z,2.45
2022-09-14T23:15:51.549Z,2.60
2022-09-14T23:18:18.661Z,3.13
2022-09-14T23:20:45.984Z,2.65
2022-09-14T23:23:13.113Z,2.55
2022-09-14T23:25:40.890Z,2.55
2022-09-14T23:28:08.503Z,3.00
2022-09-14T23:30:35.963Z,3.45
2022-09-14T23:33:03.114Z,3.33
2022-09-14T23:35:30.233Z,3.22
2022-09-14T23:37:57.669Z,2.60
2022-09-14T23:40:24.835Z,2.72
2022-09-14T23:42:52.038Z,3.92
2022-09-14T23:45:19.174Z,3.28
2022-09-14T23:47:46.283Z,3.28
2022-09-14T23:50:13.409Z,2.95
2022-09-14T23:52:40.668Z,3.13
2022-09-14T23:55:08.064Z,2.97
2022-09-14T23:57:36.517Z,3.83
